createdAt,value
2018-11-05T00:01:33.597Z,65
2018-11-05T00:06:36.211Z,62
2018-11-05T00:11:38.498Z,58
2018-11-05T00:16:40.927Z,53
2018-11-05T00:21:43.366Z,54
2018-11-05T00:26:45.807Z,53
2018-11-05T00:31:48.240Z,52
2018-11-05T00:36:50.682Z,55
2018-11-05T00:41:53.125Z,55
2018-11-05T00:46:55.559Z,58
2018-11-05T00:51:58.003Z,57
2018-11-05T00:57:00.479Z,56
2018-11-05T01:02:02.887Z,62
2018-11-05T01:07:05.335Z,60
2018-11-05T01:12:07.780Z,56
2018-11-05T01:17:10.238Z,60
2018-11-05T01:22:12.658Z,66
2018-11-05T01:27:15.128Z,62
2018-11-05T01:32:17.540Z,59
2018-11-05T01:37:20.099Z,61
2018-11-05T01:42:22.405Z,68
2018-11-05T01:47:24.881Z,62
2018-11-05T01:52:27.318Z,64
2018-11-05T01:57:29.750Z,62
2018-11-05T02:02:32.170Z,67
2018-11-05T02:07:34.606Z,67
2018-11-05T02:12:37.075Z,61
2018-11-05T02:17:39.500Z,61
2018-11-05T02:22:41.929Z,60
2018-11-05T02:27:44.357Z,58
2018-11-05T02:32:46.887Z,59
2018-11-05T02:37:49.262Z,60
2018-11-05T02:42:51.968Z,55
2018-11-05T02:47:54.147Z,55
2018-11-05T02:52:56.597Z,57
2018-11-05T02:57:59.015Z,60
2018-11-05T03:03:01.526Z,57
2018-11-05T03:08:03.894Z,58
2018-11-05T03:13:06.324Z,52
2018-11-05T03:18:08.843Z,58
2018-11-05T03:23:11.252Z,55
2018-11-05T03:28:13.692Z,55
2018-11-05T03:33:16.096Z,55
2018-11-05T03:38:18.562Z,50
2018-11-05T03:43:20.969Z,52
2018-11-05T03:48:23.444Z,52
2018-11-05T03:53:25.883Z,52
2018-11-05T03:58:28.310Z,50
2018-11-05T04:03:30.871Z,52
2018-11-05T04:08:33.175Z,51
2018-11-05T04:13:35.613Z,49
2018-11-05T04:18:38.069Z,51
2018-11-05T04:23:40.508Z,51
2018-11-05T04:28:42.928Z,45
2018-11-05T04:33:45.370Z,45
2018-11-05T04:38:47.850Z,47
2018-11-05T04:48:52.692Z,51
2018-11-05T04:53:55.137Z,52
2018-11-05T04:58:57.573Z,49
2018-11-05T05:09:07.490Z,53
2018-11-05T05:14:04.924Z,51
2018-11-05T05:19:07.463Z,57
2018-11-05T05:24:09.816Z,55
2018-11-05T05:29:12.224Z,49
2018-11-05T05:34:14.705Z,53
2018-11-05T05:44:19.530Z,57
2018-11-05T05:49:22.073Z,53
2018-11-05T05:54:24.463Z,53
2018-11-05T05:59:26.884Z,51
2018-11-05T06:04:29.351Z,53
2018-11-05T06:09:31.732Z,53
2018-11-05T06:14:34.204Z,52
2018-11-05T06:19:36.617Z,54
2018-11-05T06:24:39.050Z,57
2018-11-05T06:29:41.513Z,53
2018-11-05T06:34:43.935Z,55
2018-11-05T06:39:46.382Z,53
2018-11-05T06:44:48.871Z,50
2018-11-05T06:49:51.258Z,50
2018-11-05T06:54:53.692Z,53
2018-11-05T06:59:56.148Z,49
2018-11-05T07:04:58.726Z,54
2018-11-05T07:10:01.199Z,52
2018-11-05T07:15:03.458Z,54
2018-11-05T07:20:06.006Z,48
2018-11-05T07:25:08.386Z,46
2018-11-05T07:30:10.794Z,47
2018-11-05T07:35:13.219Z,45
2018-11-05T07:40:15.659Z,43
2018-11-05T07:45:18.126Z,48
2018-11-05T07:50:20.595Z,43
2018-11-05T07:55:23.006Z,39
2018-11-05T08:00:25.496Z,43
2018-11-05T08:05:27.865Z,41
2018-11-05T08:10:30.294Z,42
2018-11-05T08:15:32.776Z,42
2018-11-05T08:20:35.235Z,40
2018-11-05T08:25:37.625Z,42
2018-11-05T08:30:40.074Z,42
2018-11-05T08:35:42.569Z,41
2018-11-05T08:40:44.967Z,41
2018-11-05T08:45:47.381Z,37
2018-11-05T08:50:49.991Z,40
2018-11-05T08:55:52.254Z,38
2018-11-05T09:00:54.761Z,36
2018-11-05T09:05:57.167Z,37
2018-11-05T09:10:59.944Z,38
2018-11-05T09:16:02.188Z,37
2018-11-05T09:21:04.466Z,31
2018-11-05T09:26:06.979Z,36
2018-11-05T09:31:09.342Z,32
2018-11-05T09:36:11.779Z,35
2018-11-05T09:41:14.239Z,32
2018-11-05T09:46:16.664Z,32
2018-11-05T09:51:19.113Z,31
2018-11-05T09:56:21.583Z,30
2018-11-05T10:01:23.991Z,34
2018-11-05T10:06:26.423Z,33
2018-11-05T10:11:28.869Z,33
2018-11-05T10:16:31.306Z,34
2018-11-05T10:21:33.763Z,30
2018-11-05T10:26:36.193Z,31
2018-11-05T10:31:38.650Z,32
2018-11-05T10:36:41.069Z,30
2018-11-05T10:41:43.550Z,32
2018-11-05T10:46:45.959Z,30
2018-11-05T10:51:48.459Z,29
2018-11-05T10:56:50.899Z,29
2018-11-05T11:01:53.280Z,28
2018-11-05T11:06:55.713Z,29
2018-11-05T11:11:58.151Z,32
2018-11-05T11:17:00.597Z,32
2018-11-05T11:22:03.157Z,27
2018-11-05T11:27:05.471Z,24
2018-11-05T11:32:07.930Z,27
2018-11-05T11:37:10.435Z,28
2018-11-05T11:42:12.920Z,27
2018-11-05T11:47:15.352Z,27
2018-11-05T11:52:17.716Z,30
2018-11-05T11:57:20.125Z,28
2018-11-05T12:02:22.561Z,30
2018-11-05T12:07:24.996Z,30
2018-11-05T12:12:27.428Z,30
2018-11-05T12:17:29.889Z,26
2018-11-05T12:22:32.325Z,30
2018-11-05T12:27:34.754Z,32
2018-11-05T12:32:37.200Z,32
2018-11-05T12:37:39.638Z,36
2018-11-05T12:42:42.084Z,32
2018-11-05T12:47:44.562Z,33
2018-11-05T12:52:46.971Z,33
2018-11-05T12:57:49.395Z,32
2018-11-05T13:02:51.849Z,32
2018-11-05T13:07:54.276Z,34
2018-11-05T13:12:56.766Z,36
2018-11-05T13:17:59.177Z,32
2018-11-05T13:23:01.610Z,34
2018-11-05T13:28:04.087Z,34
2018-11-05T13:33:06.501Z,32
2018-11-05T13:43:11.383Z,36
2018-11-05T13:48:14.217Z,32
2018-11-05T13:53:16.248Z,40
2018-11-05T13:58:18.716Z,35
2018-11-05T14:03:21.126Z,38
2018-11-05T14:08:23.579Z,35
2018-11-05T14:13:26.156Z,36
2018-11-05T14:18:28.511Z,35
2018-11-05T14:23:30.883Z,38
2018-11-05T14:28:33.837Z,34
2018-11-05T14:33:35.755Z,36
2018-11-05T14:38:38.240Z,36
2018-11-05T14:43:40.706Z,34
2018-11-05T14:48:43.229Z,42
2018-11-05T14:53:45.527Z,37
2018-11-05T14:58:47.987Z,36
2018-11-05T15:03:50.408Z,42
2018-11-05T15:08:52.859Z,41
2018-11-05T15:13:55.296Z,39
2018-11-05T15:18:58.060Z,46
2018-11-05T15:24:00.172Z,69
2018-11-05T15:29:02.635Z,57
2018-11-05T15:34:05.081Z,41
2018-11-05T15:39:07.524Z,41
2018-11-05T15:44:09.956Z,41
2018-11-05T15:49:12.382Z,43
2018-11-05T15:54:14.880Z,44
2018-11-05T15:59:17.277Z,44
2018-11-05T16:04:19.744Z,43
2018-11-05T16:09:22.347Z,39
2018-11-05T16:14:24.580Z,43
2018-11-05T16:19:27.012Z,43
2018-11-05T16:24:29.576Z,42
2018-11-05T16:29:31.914Z,43
2018-11-05T16:34:34.404Z,44
2018-11-05T16:39:36.946Z,40
2018-11-05T16:44:39.247Z,41
2018-11-05T16:49:41.661Z,40
2018-11-05T16:54:44.162Z,44
2018-11-05T16:59:46.555Z,40
2018-11-05T17:04:48.987Z,37
2018-11-05T17:09:51.419Z,39
2018-11-05T17:14:53.863Z,35
2018-11-05T17:19:56.299Z,40
2018-11-05T17:24:58.734Z,37
2018-11-05T17:30:01.205Z,36
2018-11-05T17:35:03.619Z,36
2018-11-05T17:40:06.111Z,37
2018-11-05T17:45:08.510Z,38
2018-11-05T17:50:10.946Z,36
2018-11-05T17:55:13.386Z,40
2018-11-05T18:00:15.887Z,37
2018-11-05T18:05:18.250Z,37
2018-11-05T18:10:20.696Z,38
2018-11-05T18:15:23.160Z,36
2018-11-05T18:20:25.603Z,36
2018-11-05T18:25:28.021Z,39
2018-11-05T18:30:30.458Z,35
2018-11-05T18:35:32.913Z,39
2018-11-05T18:40:35.346Z,36
2018-11-05T18:45:37.973Z,35
2018-11-05T18:50:40.246Z,36
2018-11-05T18:55:42.657Z,38
2018-11-05T19:00:45.102Z,39
2018-11-05T19:05:47.552Z,39
2018-11-05T19:10:49.986Z,39
2018-11-05T19:15:52.441Z,36
2018-11-05T19:20:54.861Z,38
2018-11-05T19:25:57.301Z,38
2018-11-05T19:30:59.750Z,39
2018-11-05T19:36:02.263Z,41
2018-11-05T19:41:04.634Z,45
2018-11-05T19:46:07.079Z,41
2018-11-05T19:51:09.507Z,41
2018-11-05T19:56:12.086Z,41
2018-11-05T20:01:14.414Z,39
2018-11-05T20:06:16.981Z,40
2018-11-05T20:11:19.304Z,41
2018-11-05T20:16:21.721Z,40
2018-11-05T20:21:24.144Z,37
2018-11-05T20:26:26.582Z,40
2018-11-05T20:31:29.278Z,39
2018-11-05T20:36:31.470Z,35
2018-11-05T20:41:33.913Z,37
2018-11-05T20:46:36.385Z,33
2018-11-05T20:51:38.782Z,38
2018-11-05T20:56:41.254Z,37
2018-11-05T21:01:43.676Z,42
2018-11-05T21:06:46.154Z,37
2018-11-05T21:11:48.546Z,35
2018-11-05T21:16:51.047Z,38
2018-11-05T21:21:53.723Z,38
2018-11-05T21:26:56.009Z,36
2018-11-05T21:31:58.303Z,39
2018-11-05T21:37:00.738Z,35
2018-11-05T21:42:03.182Z,39
2018-11-05T21:47:05.852Z,39
2018-11-05T21:52:08.060Z,39
2018-11-05T21:57:10.497Z,38
2018-11-05T22:02:13.024Z,38
2018-11-05T22:07:15.439Z,39
2018-11-05T22:12:17.836Z,40
2018-11-05T22:17:20.298Z,41
2018-11-05T22:22:22.739Z,39
2018-11-05T22:27:25.267Z,42
2018-11-05T22:32:27.593Z,42
2018-11-05T22:37:30.038Z,43
2018-11-05T22:42:32.461Z,42
2018-11-05T22:47:34.900Z,40
2018-11-05T22:52:37.342Z,43
2018-11-05T22:57:39.790Z,42
2018-11-05T23:02:42.233Z,41
2018-11-05T23:07:44.681Z,45
2018-11-05T23:12:47.114Z,47
2018-11-05T23:17:49.579Z,46
2018-11-05T23:22:51.992Z,47
2018-11-05T23:27:54.432Z,49
2018-11-05T23:32:56.880Z,48
2018-11-05T23:37:59.328Z,49
2018-11-05T23:43:01.765Z,44
2018-11-05T23:48:04.200Z,46
2018-11-05T23:53:06.620Z,42
2018-11-05T23:58:09.067Z,45
